createdAt,value
2022-11-10T00:02:09.394Z,13.66
2022-11-10T00:04:37.153Z,13.63
2022-11-10T00:07:06.508Z,13.34
2022-11-10T00:09:34.299Z,13.35
2022-11-10T00:12:02.047Z,13.58
2022-11-10T00:14:47.307Z,13.56
2022-11-10T00:17:15.014Z,13.36
2022-11-10T00:19:42.718Z,13.69
2022-11-10T00:22:11.811Z,13.45
2022-11-10T00:24:39.541Z,13.59
2022-11-10T00:27:07.248Z,13.54
2022-11-10T00:29:35.899Z,13.23
2022-11-10T00:32:03.671Z,13.59
2022-11-10T00:34:31.443Z,13.53
2022-11-10T00:36:59.308Z,13.55
2022-11-10T00:39:28.419Z,13.52
2022-11-10T00:41:56.243Z,13.31
2022-11-10T00:44:24.002Z,13.05
2022-11-10T00:46:51.758Z,13.08
2022-11-10T00:49:19.580Z,13.09
2022-11-10T00:51:47.342Z,13.10
2022-11-10T00:54:15.132Z,12.91
2022-11-10T00:56:44.233Z,12.87
2022-11-10T00:59:11.980Z,12.77
2022-11-10T01:01:39.714Z,12.91
2022-11-10T01:04:07.906Z,12.89
2022-11-10T01:06:35.702Z,13.00
2022-11-10T01:09:03.742Z,13.06
2022-11-10T01:11:31.467Z,12.81
2022-11-10T01:14:00.520Z,12.86
2022-11-10T01:16:31.381Z,12.99
2022-11-10T01:19:00.916Z,12.82
2022-11-10T01:21:30.277Z,12.93
2022-11-10T01:23:58.563Z,13.06
2022-11-10T01:26:26.597Z,13.04
2022-11-10T01:28:54.311Z,12.67
2022-11-10T01:31:23.878Z,12.60
2022-11-10T01:33:51.611Z,13.04
2022-11-10T01:36:19.461Z,12.84
2022-11-10T01:38:47.290Z,12.60
2022-11-10T01:41:15.857Z,12.63
2022-11-10T01:43:43.857Z,12.66
2022-11-10T01:46:12.815Z,12.44
2022-11-10T01:48:45.645Z,12.51
2022-11-10T01:51:17.206Z,12.32
2022-11-10T01:53:49.149Z,12.33
2022-11-10T01:56:17.493Z,12.42
2022-11-10T01:58:54.917Z,12.32
2022-11-10T02:01:23.593Z,12.17
2022-11-10T02:03:56.884Z,12.29
2022-11-10T02:06:27.942Z,12.16
2022-11-10T02:08:58.403Z,12.17
2022-11-10T02:11:26.552Z,12.16
2022-11-10T02:13:54.730Z,12.39
2022-11-10T02:16:22.836Z,12.16
2022-11-10T02:18:51.999Z,12.28
2022-11-10T02:21:21.907Z,12.34
2022-11-10T02:23:51.429Z,12.10
2022-11-10T02:26:23.966Z,12.18
2022-11-10T02:28:51.755Z,12.22
2022-11-10T02:31:19.550Z,12.21
2022-11-10T02:33:47.264Z,11.94
2022-11-10T02:36:15.057Z,11.86
2022-11-10T02:38:44.109Z,12.17
2022-11-10T02:41:11.867Z,12.16
2022-11-10T02:43:40.206Z,12.06
2022-11-10T02:46:08.099Z,12.23
2022-11-10T02:48:35.823Z,12.00
2022-11-10T02:51:03.557Z,12.28
2022-11-10T02:53:37.109Z,12.11
2022-11-10T02:56:06.952Z,12.10
2022-11-10T02:58:34.631Z,12.23
2022-11-10T03:01:05.824Z,12.08
2022-11-10T03:03:34.024Z,12.21
2022-11-10T03:06:01.779Z,12.00
2022-11-10T03:08:29.545Z,12.11
2022-11-10T03:10:57.817Z,12.08
2022-11-10T03:13:35.700Z,12.16
2022-11-10T03:16:15.088Z,12.07
2022-11-10T03:18:42.833Z,12.27
2022-11-10T03:21:11.059Z,12.34
2022-11-10T03:23:38.825Z,12.12
2022-11-10T03:26:07.266Z,12.20
2022-11-10T03:28:36.407Z,12.06
2022-11-10T03:31:04.104Z,12.31
2022-11-10T03:33:31.855Z,12.13
2022-11-10T03:35:59.639Z,12.22
2022-11-10T03:38:27.376Z,11.99
2022-11-10T03:41:18.316Z,11.97
2022-11-10T03:43:44.139Z,11.97
2022-11-10T03:46:11.865Z,12.14
2022-11-10T03:48:39.639Z,11.90
2022-11-10T03:51:07.746Z,12.17
2022-11-10T03:53:35.509Z,11.95
2022-11-10T03:56:06.550Z,11.96
2022-11-10T03:58:34.250Z,12.12
2022-11-10T04:01:03.359Z,11.87
2022-11-10T04:03:31.122Z,11.84
2022-11-10T04:06:16.483Z,11.72
2022-11-10T04:09:02.440Z,11.94
2022-11-10T04:11:48.748Z,12.04
2022-11-10T04:14:34.453Z,12.01
2022-11-10T04:17:04.153Z,11.97
2022-11-10T04:19:32.866Z,12.07
2022-11-10T04:22:00.663Z,11.97
2022-11-10T04:24:28.379Z,12.00
2022-11-10T04:26:56.082Z,12.11
2022-11-10T04:29:23.795Z,12.41
2022-11-10T04:31:51.517Z,12.29
2022-11-10T04:34:20.575Z,12.09
2022-11-10T04:36:48.310Z,12.00
2022-11-10T04:39:16.006Z,12.03
2022-11-10T04:41:43.773Z,12.24
2022-11-10T04:44:11.478Z,12.18
2022-11-10T04:46:40.777Z,11.84
2022-11-10T04:49:09.063Z,12.00
2022-11-10T04:51:40.067Z,12.16
2022-11-10T04:54:08.627Z,11.77
2022-11-10T04:56:37.150Z,11.82
2022-11-10T04:59:04.889Z,11.95
2022-11-10T05:01:32.897Z,12.15
2022-11-10T05:04:01.141Z,11.86
2022-11-10T05:06:29.035Z,11.85
2022-11-10T05:08:58.211Z,11.99
2022-11-10T05:11:26.024Z,11.86
2022-11-10T05:13:53.755Z,11.98
2022-11-10T05:16:21.474Z,11.99
2022-11-10T05:18:53.988Z,12.01
2022-11-10T05:21:21.834Z,11.79
2022-11-10T05:23:49.570Z,11.77
2022-11-10T05:26:19.701Z,11.51
2022-11-10T05:28:47.745Z,11.58
2022-11-10T05:31:15.525Z,11.79
2022-11-10T05:33:43.233Z,11.74
2022-11-10T05:36:11.646Z,11.68
2022-11-10T05:38:43.541Z,11.51
2022-11-10T05:41:11.824Z,11.73
2022-11-10T05:43:40.943Z,11.64
2022-11-10T05:46:08.779Z,11.71
2022-11-10T05:48:36.478Z,11.60
2022-11-10T05:51:04.424Z,11.74
2022-11-10T05:53:32.213Z,11.72
2022-11-10T05:55:59.939Z,11.75
2022-11-10T05:58:27.779Z,11.74
2022-11-10T06:00:59.166Z,11.45
2022-11-10T06:03:27.358Z,11.53
2022-11-10T06:05:55.477Z,11.56
2022-11-10T06:08:23.187Z,11.62
2022-11-10T06:10:50.939Z,11.50
2022-11-10T06:13:18.860Z,11.49
2022-11-10T06:15:50.439Z,11.64
2022-11-10T06:18:19.881Z,11.82
2022-11-10T06:20:47.822Z,11.87
2022-11-10T06:23:15.686Z,11.75
2022-11-10T06:25:44.624Z,11.36
2022-11-10T06:28:12.865Z,11.77
2022-11-10T06:30:40.617Z,11.70
2022-11-10T06:33:08.319Z,11.54
2022-11-10T06:35:37.529Z,11.56
2022-11-10T06:38:06.993Z,11.70
2022-11-10T06:40:35.133Z,11.47
2022-11-10T06:43:03.149Z,11.55
2022-11-10T06:45:30.948Z,11.59
2022-11-10T06:48:02.512Z,11.78
2022-11-10T06:50:30.393Z,11.48
2022-11-10T06:53:01.275Z,11.68
2022-11-10T06:55:29.505Z,11.17
2022-11-10T06:57:57.580Z,11.37
2022-11-10T07:00:26.894Z,11.47
2022-11-10T07:03:05.435Z,11.40
2022-11-10T07:05:35.326Z,11.62
2022-11-10T07:08:05.271Z,11.68
2022-11-10T07:10:33.714Z,11.60
2022-11-10T07:13:03.302Z,11.67
2022-11-10T07:15:31.478Z,11.76
2022-11-10T07:17:59.316Z,11.64
2022-11-10T07:20:28.394Z,11.93
2022-11-10T07:22:59.201Z,11.91
2022-11-10T07:25:28.830Z,12.09
2022-11-10T07:27:57.401Z,12.58
2022-11-10T07:30:25.303Z,12.66
2022-11-10T07:32:59.947Z,12.69
2022-11-10T07:35:30.741Z,13.16
2022-11-10T07:37:59.318Z,12.89
2022-11-10T07:40:28.473Z,12.79
2022-11-10T07:42:56.177Z,12.77
2022-11-10T07:45:24.308Z,12.14
2022-11-10T07:47:52.092Z,12.39
2022-11-10T07:50:20.132Z,12.20
2022-11-10T07:52:47.927Z,12.04
2022-11-10T07:55:15.743Z,12.18
2022-11-10T07:57:44.812Z,12.24
2022-11-10T08:00:13.671Z,12.94
2022-11-10T08:02:41.447Z,12.29
2022-11-10T08:05:10.041Z,12.07
2022-11-10T08:07:37.850Z,11.98
2022-11-10T08:10:06.348Z,12.30
2022-11-10T08:12:34.060Z,12.14
2022-11-10T08:15:03.162Z,12.39
2022-11-10T08:17:30.889Z,12.16
2022-11-10T08:19:58.636Z,12.64
2022-11-10T08:22:26.748Z,12.67
2022-11-10T08:24:54.449Z,12.66
2022-11-10T08:27:22.668Z,12.91
2022-11-10T08:29:50.390Z,12.93
2022-11-10T08:32:19.624Z,13.47
2022-11-10T08:34:47.324Z,13.62
2022-11-10T08:37:15.031Z,14.31
2022-11-10T08:39:42.744Z,13.56
2022-11-10T08:42:10.425Z,13.45
2022-11-10T08:44:38.215Z,13.44
2022-11-10T08:47:06.020Z,13.33
2022-11-10T08:49:35.091Z,13.74
2022-11-10T08:52:02.889Z,13.84
2022-11-10T08:54:30.585Z,14.18
2022-11-10T08:56:58.293Z,14.52
2022-11-10T08:59:26.191Z,13.96
2022-11-10T09:01:53.884Z,14.11
2022-11-10T09:04:21.680Z,14.52
2022-11-10T09:06:50.810Z,14.48
2022-11-10T09:09:18.805Z,14.43
2022-11-10T09:11:46.516Z,15.14
2022-11-10T09:14:15.877Z,15.43
2022-11-10T09:16:43.567Z,15.82
2022-11-10T09:19:14.310Z,16.39
2022-11-10T09:21:46.279Z,16.89
2022-11-10T09:24:15.448Z,16.84
2022-11-10T09:26:45.242Z,16.66
2022-11-10T09:29:13.105Z,16.68
2022-11-10T09:31:40.865Z,15.92
2022-11-10T09:34:08.620Z,15.10
2022-11-10T09:36:40.354Z,15.32
2022-11-10T09:39:08.179Z,15.97
2022-11-10T09:41:40.404Z,16.50
2022-11-10T09:44:15.793Z,17.21
2022-11-10T09:46:47.097Z,17.05
2022-11-10T09:49:30.841Z,16.85
2022-11-10T09:52:00.240Z,16.34
2022-11-10T09:54:36.937Z,15.85
2022-11-10T09:57:08.533Z,15.69
2022-11-10T09:59:37.412Z,16.88
2022-11-10T10:02:14.242Z,16.72
2022-11-10T10:05:04.687Z,17.92
2022-11-10T10:07:43.469Z,17.81
2022-11-10T10:10:17.780Z,17.77
2022-11-10T10:13:06.886Z,17.64
2022-11-10T10:15:45.007Z,16.28
2022-11-10T10:18:27.388Z,16.18
2022-11-10T10:21:07.106Z,16.25
2022-11-10T10:26:29.044Z,15.37
2022-11-10T10:29:02.338Z,15.28
2022-11-10T10:31:35.531Z,15.10
2022-11-10T10:34:05.113Z,14.59
2022-11-10T10:36:32.887Z,14.48
2022-11-10T10:39:03.957Z,14.70
2022-11-10T10:41:33.518Z,15.48
2022-11-10T10:44:04.032Z,14.97
2022-11-10T10:46:35.762Z,14.77
2022-11-10T10:49:27.991Z,15.14
2022-11-10T10:52:08.049Z,15.29
2022-11-10T10:54:37.045Z,14.75
2022-11-10T10:57:07.971Z,15.03
2022-11-10T10:59:37.047Z,14.69
2022-11-10T11:02:04.771Z,14.67
2022-11-10T11:04:34.966Z,14.60
2022-11-10T11:07:04.794Z,14.20
2022-11-10T11:09:42.038Z,14.17
2022-11-10T11:12:12.776Z,14.33
2022-11-10T11:14:45.805Z,14.55
2022-11-10T11:17:19.004Z,14.52
2022-11-10T11:19:46.942Z,14.45
2022-11-10T11:22:49.883Z,14.45
2022-11-10T11:25:24.101Z,13.86
2022-11-10T11:28:00.726Z,14.10
2022-11-10T11:30:43.690Z,14.16
2022-11-10T11:33:22.918Z,14.06
2022-11-10T11:35:57.323Z,14.42
2022-11-10T11:38:32.507Z,15.00
2022-11-10T11:41:14.216Z,15.68
2022-11-10T11:44:06.343Z,16.65
2022-11-10T11:46:48.952Z,16.27
2022-11-10T11:49:37.376Z,17.09
2022-11-10T11:52:12.663Z,16.46
2022-11-10T11:54:57.878Z,15.25
2022-11-10T11:57:40.383Z,14.95
2022-11-10T12:00:11.674Z,14.79
2022-11-10T12:03:23.358Z,14.96
2022-11-10T12:06:06.344Z,14.69
2022-11-10T12:08:41.653Z,14.85
2022-11-10T12:11:21.285Z,14.25
2022-11-10T12:14:01.093Z,14.48
2022-11-10T12:16:31.714Z,14.19
2022-11-10T12:19:14.177Z,14.66
2022-11-10T12:21:49.894Z,14.23
2022-11-10T12:24:39.411Z,14.36
2022-11-10T12:27:15.434Z,14.22
2022-11-10T12:29:47.413Z,14.32
2022-11-10T12:32:20.397Z,14.57
2022-11-10T12:34:54.279Z,14.48
2022-11-10T12:37:29.429Z,14.20
2022-11-10T12:40:02.878Z,14.27
2022-11-10T12:42:33.794Z,14.60
2022-11-10T12:45:03.549Z,14.62
2022-11-10T12:47:39.025Z,14.93
2022-11-10T12:50:26.865Z,14.53
2022-11-10T12:52:58.478Z,14.46
2022-11-10T12:55:35.905Z,14.10
2022-11-10T12:58:06.207Z,14.46
2022-11-10T13:00:40.667Z,14.77
2022-11-10T13:03:26.416Z,14.58
2022-11-10T13:06:01.516Z,14.88
2022-11-10T13:08:36.073Z,14.94
2022-11-10T13:11:08.517Z,14.77
2022-11-10T13:13:45.478Z,14.75
2022-11-10T13:16:54.142Z,14.59
2022-11-10T13:19:51.133Z,14.48
2022-11-10T13:22:40.818Z,14.64
2022-11-10T13:25:47.027Z,14.56
2022-11-10T13:28:14.789Z,14.25
2022-11-10T13:30:45.542Z,14.51
2022-11-10T13:33:36.048Z,14.51
2022-11-10T13:36:04.175Z,14.61
2022-11-10T13:38:39.069Z,14.88
2022-11-10T13:41:24.773Z,14.82
2022-11-10T13:43:54.233Z,14.67
2022-11-10T13:46:32.040Z,15.23
2022-11-10T13:49:35.925Z,15.23
2022-11-10T13:52:11.400Z,14.96
2022-11-10T13:55:02.953Z,14.76
2022-11-10T13:57:36.216Z,14.69
2022-11-10T14:00:24.956Z,14.99
2022-11-10T14:02:55.589Z,14.69
2022-11-10T14:06:03.322Z,14.68
2022-11-10T14:08:38.770Z,14.53
2022-11-10T14:11:14.672Z,14.50
2022-11-10T14:13:45.885Z,14.37
2022-11-10T14:16:18.513Z,14.62
2022-11-10T14:18:56.445Z,14.67
2022-11-10T14:21:29.503Z,14.56
2022-11-10T14:24:04.045Z,14.38
2022-11-10T14:26:37.971Z,14.67
2022-11-10T14:29:38.445Z,14.47
2022-11-10T14:32:13.838Z,14.46
2022-11-10T14:34:47.836Z,14.92
2022-11-10T14:37:22.778Z,14.66
2022-11-10T14:39:53.718Z,14.86
2022-11-10T14:42:25.663Z,14.82
2022-11-10T14:45:07.245Z,14.92
2022-11-10T14:47:35.926Z,14.38
2022-11-10T14:50:18.717Z,14.64
2022-11-10T14:52:48.656Z,14.92
2022-11-10T14:55:20.535Z,14.71
2022-11-10T14:57:52.804Z,14.75
2022-11-10T15:00:26.257Z,14.87
2022-11-10T15:02:56.699Z,14.76
2022-11-10T15:05:25.585Z,14.73
2022-11-10T15:07:55.928Z,14.74
2022-11-10T15:10:27.371Z,14.70
2022-11-10T15:13:05.598Z,14.75
2022-11-10T15:15:33.469Z,14.80
2022-11-10T15:18:01.169Z,14.56
2022-11-10T15:20:40.599Z,14.78
2022-11-10T15:23:22.045Z,14.68
2022-11-10T15:25:53.207Z,14.80
2022-11-10T15:28:30.590Z,15.03
2022-11-10T15:31:00.785Z,14.58
2022-11-10T15:33:32.184Z,14.83
2022-11-10T15:36:16.159Z,14.81
2022-11-10T15:38:44.247Z,14.77
2022-11-10T15:41:16.899Z,14.46
2022-11-10T15:43:45.987Z,14.54
2022-11-10T15:46:19.469Z,14.55
2022-11-10T15:48:49.618Z,14.77
2022-11-10T15:51:25.623Z,14.85
2022-11-10T15:53:54.772Z,14.88
2022-11-10T15:56:24.939Z,14.66
2022-11-10T15:59:00.594Z,15.20
2022-11-10T16:01:29.850Z,14.91
2022-11-10T16:03:57.761Z,14.95
2022-11-10T16:06:25.465Z,14.74
2022-11-10T16:08:53.383Z,14.78
2022-11-10T16:11:22.614Z,14.77
2022-11-10T16:13:52.935Z,14.76
2022-11-10T16:16:23.994Z,14.75
2022-11-10T16:18:52.241Z,14.72
2022-11-10T16:21:22.161Z,14.77
2022-11-10T16:23:50.511Z,14.73
2022-11-10T16:26:22.439Z,14.88
2022-11-10T16:28:51.851Z,14.86
2022-11-10T16:31:22.532Z,14.88
2022-11-10T16:33:51.674Z,14.87
2022-11-10T16:36:25.297Z,15.16
2022-11-10T16:38:54.051Z,14.77
2022-11-10T16:41:21.963Z,14.69
2022-11-10T16:43:50.108Z,14.71
2022-11-10T16:46:20.857Z,14.82
2022-11-10T16:48:49.633Z,14.95
2022-11-10T16:51:18.989Z,15.04
2022-11-10T16:53:46.916Z,14.82
2022-11-10T16:56:15.624Z,14.92
2022-11-10T16:58:43.484Z,14.89
2022-11-10T17:01:19.416Z,15.02
2022-11-10T17:03:49.813Z,14.76
2022-11-10T17:06:21.559Z,15.13
2022-11-10T17:08:51.248Z,14.99
2022-11-10T17:11:19.009Z,14.69
2022-11-10T17:13:46.910Z,14.71
2022-11-10T17:16:21.864Z,14.81
2022-11-10T17:18:50.633Z,14.93
2022-11-10T17:21:21.176Z,14.82
2022-11-10T17:23:49.018Z,15.03
2022-11-10T17:26:19.200Z,14.87
2022-11-10T17:28:47.068Z,14.77
2022-11-10T17:31:15.794Z,14.89
2022-11-10T17:33:43.543Z,15.26
2022-11-10T17:36:15.447Z,15.08
2022-11-10T17:38:45.022Z,15.10
2022-11-10T17:41:16.315Z,15.15
2022-11-10T17:43:45.921Z,15.32
2022-11-10T17:46:17.269Z,15.24
2022-11-10T17:48:46.884Z,15.11
2022-11-10T17:51:19.245Z,14.98
2022-11-10T17:53:50.548Z,15.26
2022-11-10T17:56:18.820Z,15.09
2022-11-10T17:58:46.575Z,15.14
2022-11-10T18:01:19.598Z,15.50
2022-11-10T18:03:47.821Z,15.37
2022-11-10T18:06:16.055Z,15.57
2022-11-10T18:08:44.428Z,15.71
2022-11-10T18:11:16.224Z,15.37
2022-11-10T18:13:44.517Z,15.40
2022-11-10T18:16:13.896Z,15.42
2022-11-10T18:18:42.266Z,15.18
2022-11-10T18:21:11.153Z,15.31
2022-11-10T18:23:39.103Z,15.55
2022-11-10T18:26:08.405Z,15.32
2022-11-10T18:28:37.472Z,15.15
2022-11-10T18:31:09.394Z,15.66
2022-11-10T18:33:37.137Z,15.44
2022-11-10T18:36:05.524Z,15.42
2022-11-10T18:38:33.262Z,15.42
2022-11-10T18:41:24.589Z,15.14
2022-11-10T18:43:53.864Z,15.33
2022-11-10T18:46:21.667Z,15.44
2022-11-10T18:48:49.423Z,15.35
2022-11-10T18:51:17.684Z,15.34
2022-11-10T18:53:45.417Z,15.43
2022-11-10T18:56:14.353Z,15.64
2022-11-10T18:58:42.338Z,15.40
2022-11-10T19:01:12.216Z,15.80
2022-11-10T19:03:40.048Z,15.51
2022-11-10T19:06:08.283Z,15.26
2022-11-10T19:08:36.666Z,15.51
2022-11-10T19:11:07.099Z,15.62
2022-11-10T19:13:34.884Z,15.41
2022-11-10T19:16:04.998Z,15.25
2022-11-10T19:18:34.591Z,15.65
2022-11-10T19:21:06.473Z,15.31
2022-11-10T19:23:34.253Z,15.36
2022-11-10T19:26:02.139Z,15.74
2022-11-10T19:28:30.444Z,15.44
2022-11-10T19:31:01.436Z,15.50
2022-11-10T19:33:30.533Z,15.58
2022-11-10T19:36:03.264Z,15.51
2022-11-10T19:38:31.445Z,15.45
2022-11-10T19:41:00.112Z,15.48
2022-11-10T19:43:30.827Z,15.55
2022-11-10T19:46:02.423Z,15.28
2022-11-10T19:48:31.131Z,15.57
2022-11-10T19:51:01.112Z,15.36
2022-11-10T19:53:29.743Z,15.69
2022-11-10T19:56:01.883Z,15.76
2022-11-10T19:58:30.176Z,15.25
2022-11-10T20:01:00.110Z,15.43
2022-11-10T20:03:32.549Z,15.48
2022-11-10T20:06:04.293Z,15.62
2022-11-10T20:08:32.589Z,15.40
2022-11-10T20:11:01.886Z,15.67
2022-11-10T20:13:30.491Z,15.66
2022-11-10T20:15:58.607Z,15.46
2022-11-10T20:18:26.591Z,15.68
2022-11-10T20:20:54.665Z,15.67
2022-11-10T20:23:24.310Z,15.35
2022-11-10T20:26:02.668Z,15.62
2022-11-10T20:28:30.743Z,15.56
2022-11-10T20:30:59.818Z,15.65
2022-11-10T20:33:28.419Z,15.45
2022-11-10T20:35:56.251Z,15.61
2022-11-10T20:38:25.551Z,15.71
2022-11-10T20:41:02.818Z,15.61
2022-11-10T20:43:30.944Z,15.48
2022-11-10T20:45:58.931Z,15.54
2022-11-10T20:48:26.750Z,15.53
2022-11-10T20:50:54.653Z,15.41
2022-11-10T20:53:22.715Z,15.54
2022-11-10T20:55:57.703Z,15.98
2022-11-10T20:58:26.642Z,15.59
2022-11-10T21:00:54.624Z,15.58
2022-11-10T21:03:23.578Z,15.36
2022-11-10T21:05:55.344Z,15.52
2022-11-10T21:08:23.829Z,15.59
2022-11-10T21:10:54.413Z,15.53
2022-11-10T21:13:24.062Z,15.19
2022-11-10T21:15:53.612Z,15.31
2022-11-10T21:18:22.248Z,15.40
2022-11-10T21:20:51.424Z,15.21
2022-11-10T21:23:19.293Z,15.65
2022-11-10T21:25:55.521Z,15.66
2022-11-10T21:28:23.373Z,15.48
2022-11-10T21:30:51.636Z,15.51
2022-11-10T21:33:19.441Z,15.37
2022-11-10T21:35:47.205Z,15.46
2022-11-10T21:38:15.179Z,15.33
2022-11-10T21:40:43.114Z,15.25
2022-11-10T21:43:12.256Z,15.41
2022-11-10T21:45:39.999Z,15.52
2022-11-10T21:48:10.946Z,15.36
2022-11-10T21:50:38.719Z,15.37
2022-11-10T21:53:07.994Z,15.43
2022-11-10T21:55:35.841Z,15.42
2022-11-10T21:58:03.529Z,15.66
2022-11-10T22:00:32.701Z,15.49
2022-11-10T22:03:01.274Z,15.35
2022-11-10T22:05:29.552Z,15.62
2022-11-10T22:07:57.334Z,15.13
2022-11-10T22:10:42.795Z,15.79
2022-11-10T22:13:33.674Z,15.50
2022-11-10T22:16:20.245Z,15.42
2022-11-10T22:18:48.383Z,15.20
2022-11-10T22:21:16.075Z,15.59
2022-11-10T22:24:01.375Z,15.36
2022-11-10T22:26:29.087Z,15.43
2022-11-10T22:28:56.861Z,15.52
2022-11-10T22:31:25.999Z,15.32
2022-11-10T22:33:53.699Z,15.23
2022-11-10T22:36:22.120Z,15.15
2022-11-10T22:38:50.321Z,15.32
2022-11-10T22:41:35.839Z,15.45
2022-11-10T22:44:06.683Z,15.32
2022-11-10T22:46:37.668Z,15.30
2022-11-10T22:49:07.874Z,15.31
2022-11-10T22:51:35.968Z,15.25
2022-11-10T22:54:04.863Z,15.11
2022-11-10T22:56:34.150Z,15.46
2022-11-10T22:59:01.919Z,15.19
2022-11-10T23:01:29.961Z,15.34
2022-11-10T23:03:59.886Z,15.28
2022-11-10T23:06:28.082Z,15.28
2022-11-10T23:08:56.210Z,15.26
2022-11-10T23:11:27.503Z,15.43
2022-11-10T23:13:55.630Z,15.45
2022-11-10T23:16:26.129Z,15.54
2022-11-10T23:18:55.322Z,15.69
2022-11-10T23:21:26.206Z,15.24
2022-11-10T23:23:54.611Z,15.31
2022-11-10T23:26:24.233Z,15.39
2022-11-10T23:28:52.962Z,15.35
2022-11-10T23:31:22.517Z,15.08
2022-11-10T23:33:52.487Z,15.28
2022-11-10T23:36:21.721Z,15.11
2022-11-10T23:38:50.810Z,15.26
2022-11-10T23:41:20.363Z,15.16
2022-11-10T23:43:48.518Z,15.23
2022-11-10T23:46:16.479Z,14.83
2022-11-10T23:48:44.569Z,15.20
2022-11-10T23:51:14.320Z,15.13
2022-11-10T23:53:42.416Z,15.06
2022-11-10T23:56:13.317Z,15.15
2022-11-10T23:58:41.289Z,15.22
